TimeMST,TemperatureF,Dew PointF,Humidity,Sea Level PressureIn,VisibilityMPH,Wind Direction,Wind SpeedMPH,Gust SpeedMPH,PrecipitationIn,Events,Conditions,WindDirDegrees,DateUTC
12:53 AM,10.9,7.0,84,29.92,10.0,East,3.5,-,N/A,,Clear,80,2011-11-08 07:53:00
1:53 AM,10.9,7.0,84,29.94,10.0,ENE,6.9,-,N/A,,Clear,70,2011-11-08 08:53:00
2:53 AM,10.0,6.1,84,29.94,10.0,ENE,5.8,-,N/A,,Clear,70,2011-11-08 09:53:00
3:53 AM,10.0,6.1,84,29.96,10.0,East,3.5,-,N/A,,Clear,90,2011-11-08 10:53:00
4:53 AM,8.1,3.9,83,30.00,10.0,NE,5.8,-,N/A,,Clear,40,2011-11-08 11:53:00
5:38 AM,8.6,3.2,79,30.01,9.0,East,5.8,-,N/A,,Scattered Clouds,80,2011-11-08 12:38:00
5:53 AM,9.0,6.1,88,30.04,9.0,East,5.8,-,N/A,,Mostly Cloudy,90,2011-11-08 12:53:00
6:53 AM,10.9,8.1,88,30.06,5.0,East,5.8,-,0.00,Snow,Light Snow,90,2011-11-08 13:53:00
7:32 AM,14.0,8.6,79,30.05,10.0,ENE,5.8,-,0.00,,Overcast,70,2011-11-08 14:32:00
7:53 AM,15.1,8.1,74,30.08,10.0,NE,5.8,-,0.00,,Mostly Cloudy,50,2011-11-08 14:53:00
8:08 AM,15.8,8.6,73,30.07,10.0,NE,4.6,-,N/A,,Mostly Cloudy,40,2011-11-08 15:08:00
8:53 AM,19.9,10.0,65,30.05,10.0,NNE,11.5,-,N/A,,Clear,30,2011-11-08 15:53:00
9:46 AM,21.2,8.6,58,30.08,10.0,NNE,4.6,-,N/A,,Mostly Cloudy,30,2011-11-08 16:46:00
9:53 AM,21.9,8.1,55,30.04,10.0,NE,8.1,-,N/A,,Mostly Cloudy,40,2011-11-08 16:53:00
10:01 AM,23.0,8.6,54,30.08,10.0,Variable,4.6,-,N/A,,Mostly Cloudy,0,2011-11-08 17:01:00
10:53 AM,23.0,9.0,55,30.04,10.0,North,3.5,-,N/A,,Scattered Clouds,350,2011-11-08 17:53:00
11:53 AM,25.0,10.0,53,30.03,10.0,NE,8.1,-,N/A,,Overcast,40,2011-11-08 18:53:00
12:53 PM,25.0,10.0,53,30.07,10.0,North,4.6,-,N/A,,Overcast,350,2011-11-08 19:53:00
1:53 PM,25.0,8.1,49,30.07,10.0,NW,15.0,23.0,N/A,,Mostly Cloudy,320,2011-11-08 20:53:00
2:53 PM,23.0,10.9,60,30.11,10.0,NW,16.1,-,N/A,,Mostly Cloudy,320,2011-11-08 21:53:00
3:53 PM,25.0,9.0,51,30.12,10.0,NNW,10.4,-,N/A,,Mostly Cloudy,330,2011-11-08 22:53:00
4:53 PM,19.9,9.0,62,30.21,10.0,NW,9.2,-,N/A,,Scattered Clouds,320,2011-11-08 23:53:00
5:53 PM,19.0,9.0,65,30.24,10.0,NW,10.4,-,N/A,,Mostly Cloudy,320,2011-11-09 00:53:00
6:03 PM,19.4,8.6,63,30.20,10.0,NNW,12.7,-,N/A,,Mostly Cloudy,340,2011-11-09 01:03:00
6:53 PM,17.1,8.1,68,30.27,10.0,Calm,Calm,-,N/A,,Mostly Cloudy,0,2011-11-09 01:53:00
7:53 PM,14.0,7.0,74,30.27,10.0,East,4.6,-,N/A,,Overcast,100,2011-11-09 02:53:00
8:53 PM,10.9,5.0,77,30.29,10.0,Calm,Calm,-,N/A,,Partly Cloudy,0,2011-11-09 03:53:00
9:53 PM,10.0,5.0,80,30.32,10.0,ENE,3.5,-,N/A,,Clear,70,2011-11-09 04:53:00
10:32 PM,10.4,5.0,79,30.29,10.0,NE,4.6,-,N/A,,Mostly Cloudy,50,2011-11-09 05:32:00
10:53 PM,10.0,6.1,84,30.31,10.0,ENE,6.9,-,N/A,,Mostly Cloudy,60,2011-11-09 05:53:00
11:17 PM,8.6,6.8,92,30.30,10.0,ENE,5.8,-,N/A,,Scattered Clouds,70,2011-11-09 06:17:00
11:53 PM,9.0,5.0,84,30.32,10.0,ENE,8.1,-,N/A,,Clear,70,2011-11-09 06:53:00